createdAt,value
2022-08-14T00:04:32.509Z,1006.7
2022-08-14T00:10:50.560Z,1006.59
2022-08-14T00:16:55.751Z,1006.49
2022-08-14T00:23:14.748Z,1006.43
2022-08-14T00:29:40.235Z,1006.41
2022-08-14T00:36:34.802Z,1006.31
2022-08-14T00:42:21.128Z,1006.31
2022-08-14T00:48:39.073Z,1006.27
2022-08-14T00:55:01.968Z,1006.21
2022-08-14T01:01:22.244Z,1006.14
2022-08-14T01:07:47.447Z,1006.08
2022-08-14T01:14:18.563Z,1006.06
2022-08-14T01:20:29.884Z,1006.04
2022-08-14T01:26:50.779Z,1005.98
2022-08-14T01:33:11.004Z,1005.88
2022-08-14T01:39:32.114Z,1005.78
2022-08-14T01:45:57.468Z,1005.67
2022-08-14T01:52:34.808Z,1005.57
2022-08-14T01:58:36.966Z,1005.4
2022-08-14T02:04:57.782Z,1005.31
2022-08-14T02:11:20.222Z,1005.21
2022-08-14T02:17:39.971Z,1005.17
2022-08-14T02:24:03.067Z,1005.21
2022-08-14T02:30:23.030Z,1005.19
2022-08-14T02:37:03.179Z,1005.25
2022-08-14T02:43:07.798Z,1005.29
2022-08-14T02:49:33.126Z,1005.36
2022-08-14T02:55:48.984Z,1005.38
2022-08-14T03:02:16.353Z,1005.4
2022-08-14T03:08:32.041Z,1005.4
2022-08-14T03:14:54.975Z,1005.38
2022-08-14T03:39:11.069Z,1005.17
2022-08-14T03:45:20.561Z,1005.13
2022-08-14T03:51:01.990Z,1005.11
2022-08-14T03:57:22.664Z,1005.11
2022-08-14T04:03:44.993Z,1005.07
2022-08-14T04:10:04.969Z,1005.09
2022-08-14T04:16:31.433Z,1005.11
2022-08-14T04:22:47.997Z,1005.07
2022-08-14T04:29:15.635Z,1005.01
2022-08-14T04:35:55.706Z,1004.94
2022-08-14T04:41:53.975Z,1004.9
2022-08-14T04:48:13.977Z,1004.88
2022-08-14T04:54:36.990Z,1004.9
2022-08-14T05:00:56.963Z,1004.9
2022-08-14T05:07:19.980Z,1004.94
2022-08-14T05:13:59.408Z,1004.95
2022-08-14T05:21:04.694Z,1004.92
2022-08-14T05:26:22.976Z,1004.92
2022-08-14T05:32:46.815Z,1004.84
2022-08-14T05:39:05.968Z,1004.78
2022-08-14T05:45:28.981Z,1004.68
2022-08-14T05:51:48.970Z,1004.62
2022-08-14T05:58:12.001Z,1004.56
2022-08-14T06:04:32.014Z,1004.54
2022-08-14T06:10:54.980Z,1004.5
2022-08-14T06:17:15.653Z,1004.48
2022-08-14T06:23:40.050Z,1004.48
2022-08-14T06:30:00.091Z,1004.45
2022-08-14T06:36:22.988Z,1004.48
2022-08-14T06:42:43.064Z,1004.48
2022-08-14T06:49:06.223Z,1004.43
2022-08-14T06:55:28.040Z,1004.31
2022-08-14T07:01:49.099Z,1004.25
2022-08-14T07:08:08.989Z,1004.19
2022-08-14T07:14:31.986Z,1004.07
2022-08-14T07:20:51.993Z,1004.05
2022-08-14T07:27:14.983Z,1004.01
2022-08-14T07:33:34.980Z,1004
2022-08-14T07:39:58.031Z,1003.9
2022-08-14T07:46:21.420Z,1003.88
2022-08-14T07:52:42.310Z,1003.8
2022-08-14T07:59:01.009Z,1003.82
2022-08-14T08:05:23.980Z,1003.82
2022-08-14T08:11:43.977Z,1003.84
2022-08-14T08:18:06.991Z,1003.82
2022-08-14T08:24:26.978Z,1003.76
2022-08-14T08:30:50.048Z,1003.76
2022-08-14T08:37:09.978Z,1003.7
2022-08-14T08:43:32.976Z,1003.68
2022-08-14T08:49:59.844Z,1003.6
2022-08-14T09:13:55.457Z,1003.39
2022-08-14T09:20:26.061Z,1003.33
2022-08-14T09:26:37.974Z,1003.23
2022-08-14T09:33:00.064Z,1003.17
2022-08-14T09:39:21.328Z,1003.04
2022-08-14T09:45:52.641Z,1002.98
2022-08-14T09:52:03.973Z,1002.83
2022-08-14T09:58:24.720Z,1002.76
2022-08-14T10:04:49.952Z,1002.74
2022-08-14T10:11:06.975Z,1002.66
2022-08-14T10:17:31.435Z,1002.56
2022-08-14T10:23:49.981Z,1002.48
2022-08-14T10:30:12.979Z,1002.42
2022-08-14T10:36:35.353Z,1002.36
2022-08-14T10:42:55.979Z,1002.29
2022-08-14T10:49:15.983Z,1002.17
2022-08-14T10:55:38.970Z,1002.03
2022-08-14T11:01:58.971Z,1002.07
2022-08-14T11:08:21.988Z,1002.03
2022-08-14T11:14:41.974Z,1001.99
2022-08-14T11:21:04.984Z,1001.91
2022-08-14T11:27:28.405Z,1001.76
2022-08-14T11:33:47.972Z,1001.66
2022-08-14T11:40:08.099Z,1001.58
2022-08-14T11:46:37.278Z,1001.46
2022-08-14T11:52:51.113Z,1001.35
2022-08-14T11:59:14.016Z,1001.31
2022-08-14T12:05:33.978Z,1001.23
2022-08-14T12:11:57.004Z,1001.15
2022-08-14T12:18:19.409Z,1001.11
2022-08-14T12:24:40.319Z,1001.03
2022-08-14T12:30:59.975Z,1000.97
2022-08-14T12:37:22.969Z,1000.86
2022-08-14T12:43:42.985Z,1000.78
2022-08-14T12:50:05.979Z,1000.66
2022-08-14T12:56:33.599Z,1000.54
2022-08-14T13:02:49.017Z,1000.42
2022-08-14T13:09:11.162Z,1000.37
2022-08-14T13:15:31.988Z,1000.24
2022-08-14T13:21:59.195Z,1000.12
2022-08-14T13:28:16.816Z,1000.01
2022-08-14T13:34:34.976Z,999.93
2022-08-14T13:40:57.980Z,999.85
2022-08-14T13:47:17.985Z,999.79
2022-08-14T13:53:41.367Z,999.67
2022-08-14T14:00:00.983Z,999.65
2022-08-14T14:06:23.978Z,999.54
2022-08-14T14:12:45.257Z,999.48
2022-08-14T14:19:08.771Z,999.46
2022-08-14T14:25:26.978Z,999.38
2022-08-14T14:31:49.989Z,999.3
2022-08-14T14:38:09.971Z,999.3
2022-08-14T14:44:32.982Z,999.24
2022-08-14T14:50:52.985Z,999.22
2022-08-14T14:57:16.717Z,999.22
2022-08-14T15:03:35.978Z,999.15
2022-08-14T15:19:56.214Z,999.05
2022-08-14T15:26:04.982Z,998.99
2022-08-14T15:32:29.190Z,998.99
2022-08-14T15:38:47.975Z,998.95
2022-08-14T15:45:11.666Z,998.93
2022-08-14T15:51:31.262Z,998.89
2022-08-14T15:58:02.635Z,998.83
2022-08-14T16:04:17.247Z,998.83
2022-08-14T16:10:37.208Z,998.77
2022-08-14T16:17:00.253Z,998.73
2022-08-14T16:23:20.911Z,998.71
2022-08-14T16:29:39.973Z,998.7
2022-08-14T16:36:02.987Z,998.66
2022-08-14T16:42:39.633Z,998.66
2022-08-14T16:48:54.634Z,998.58
2022-08-14T16:55:05.987Z,998.54
2022-08-14T17:01:29.035Z,998.5
2022-08-14T17:07:52.568Z,998.42
2022-08-14T17:14:11.988Z,998.36
2022-08-14T17:20:39.301Z,998.34
2022-08-14T17:26:55.902Z,998.3
2022-08-14T17:33:14.971Z,998.26
2022-08-14T17:39:39.870Z,998.26
2022-08-14T17:45:57.982Z,998.21
2022-08-14T17:52:33.999Z,998.26
2022-08-14T17:58:41.691Z,998.28
2022-08-14T18:05:03.975Z,998.3
2022-08-14T18:11:23.970Z,998.3
2022-08-14T18:17:50.844Z,998.3
2022-08-14T18:24:20.525Z,998.28
2022-08-14T18:30:32.399Z,998.32
2022-08-14T18:36:54.511Z,998.32
2022-08-14T18:43:12.971Z,998.36
2022-08-14T18:49:33.505Z,998.36
2022-08-14T18:55:55.975Z,998.38
2022-08-14T19:02:20.749Z,998.38
2022-08-14T19:08:38.969Z,998.42
2022-08-14T19:14:58.978Z,998.38
2022-08-14T19:21:21.976Z,998.44
2022-08-14T19:27:45.694Z,998.42
2022-08-14T19:34:06.728Z,998.44
2022-08-14T19:40:24.997Z,998.46
2022-08-14T19:46:59.918Z,998.42
2022-08-14T19:53:10.681Z,998.44
2022-08-14T19:59:36.566Z,998.42
2022-08-14T20:05:50.987Z,998.46
2022-08-14T20:12:28.531Z,998.46
2022-08-14T20:18:48.854Z,998.44
2022-08-14T20:24:56.980Z,998.52
2022-08-14T20:31:17.732Z,998.52
2022-08-14T20:37:39.982Z,998.52
2022-08-14T20:44:00.758Z,998.5
2022-08-14T20:50:28.497Z,998.48
2022-08-14T20:56:42.980Z,998.44
2022-08-14T21:03:05.961Z,998.44
2022-08-14T21:25:50.952Z,998.38
2022-08-14T21:32:20.473Z,998.4
2022-08-14T21:38:34.836Z,998.44
2022-08-14T21:44:56.975Z,998.44
2022-08-14T21:51:54.843Z,998.44
2022-08-14T21:57:56.991Z,998.4
2022-08-14T22:20:36.986Z,998.36
2022-08-14T22:26:56.968Z,998.4
2022-08-14T22:33:19.984Z,998.38
2022-08-14T22:40:14.568Z,998.36
2022-08-14T22:46:02.984Z,998.34
2022-08-14T22:52:32.201Z,998.3
2022-08-14T22:58:45.968Z,998.26
2022-08-14T23:05:05.982Z,998.26
2022-08-14T23:11:28.986Z,998.26
2022-08-14T23:17:48.972Z,998.24
2022-08-14T23:24:11.976Z,998.23
2022-08-14T23:30:34.689Z,998.19
2022-08-14T23:36:55.277Z,998.13
2022-08-14T23:43:14.985Z,998.13
2022-08-14T23:49:49.711Z,998.17
2022-08-14T23:55:58.012Z,998.19
